Time;durP1;ratioP1;P1;durP2;ratioP2;P2;SDS_P1;SDS_P2;PMS_P1;PMS_P2;Temp;Humidity;BMP_temperature;BMP_pressure;BME280_temperature;BME280_humidity;BME280_pressure;Samples;Min_cycle;Max_cycle;Signal;HPM_P1;HPM_P2
2022/11/22 00:01:27;;;;;;;3.42;2.50;;;;;;;5.74;100.00;99067.78;4994980;28;20420;-96
2022/11/22 00:03:52;;;;;;;2.90;2.40;;;;;;;5.71;100.00;99068.72;4991068;28;20043;-96
2022/11/22 00:06:36;;;;;;;3.17;2.45;;;;;;;5.77;100.00;99077.16;4987682;28;20099;-96
2022/11/22 00:09:01;;;;;;;7.03;2.60;;;;;;;5.75;100.00;99066.03;4988876;28;20035;-96
2022/11/22 00:11:27;;;;;;;3.50;2.35;;;;;;;5.74;100.00;99057.50;4991039;28;20033;-96
2022/11/22 00:13:52;;;;;;;4.88;2.45;;;;;;;5.78;100.00;99064.25;4984530;28;20786;-96
2022/11/22 00:16:36;;;;;;;3.87;2.40;;;;;;;5.79;100.00;99062.53;4986940;28;20031;-96
2022/11/22 00:19:01;;;;;;;3.15;2.20;;;;;;;5.80;100.00;99061.66;4987230;28;20030;-96
2022/11/22 00:21:27;;;;;;;2.92;2.15;;;;;;;5.79;100.00;99063.38;4985622;28;20085;-96
2022/11/22 00:23:56;;;;;;;2.45;2.10;;;;;;;5.81;100.00;99060.75;4996249;23;20503;-96
2022/11/22 00:26:28;;;;;;;3.08;2.20;;;;;;;5.80;100.00;99059.06;5029892;23;20051;-96
2022/11/22 00:28:53;;;;;;;3.58;2.17;;;;;;;5.83;100.00;99066.72;4983567;28;20077;-96
2022/11/22 00:31:18;;;;;;;2.97;2.13;;;;;;;5.83;100.00;99059.00;4985885;28;20028;-96
2022/11/22 00:33:44;;;;;;;2.45;2.13;;;;;;;5.82;100.00;99058.13;4984411;28;20034;-96
2022/11/22 00:36:09;;;;;;;2.40;2.15;;;;;;;5.83;100.00;99062.41;4987092;28;20033;-96
2022/11/22 00:38:52;;;;;;;3.05;2.20;;;;;;;5.85;100.00;99059.81;4984101;28;20030;-96
2022/11/22 00:41:18;;;;;;;3.03;1.90;;;;;;;5.87;100.00;99069.19;4984578;28;20479;-96
2022/11/22 00:43:44;;;;;;;2.17;1.92;;;;;;;5.88;100.00;99064.88;4985475;28;20023;-96
2022/11/22 00:46:26;;;;;;;3.03;2.30;;;;;;;5.86;100.00;99062.34;4984164;28;20037;-96
2022/11/22 00:48:52;;;;;;;3.85;2.20;;;;;;;5.88;100.00;99063.16;4982773;28;20031;-96
2022/11/22 00:51:18;;;;;;;4.57;2.10;;;;;;;5.86;100.00;99058.91;4979437;28;20023;-96
2022/11/22 00:53:55;;;;;;;4.67;2.27;;;;;;;5.88;100.00;99067.44;4982205;28;20058;-96
2022/11/22 00:56:21;;;;;;;6.07;2.55;;;;;;;5.85;100.00;99062.38;4984992;28;20034;-96
2022/11/22 00:58:46;;;;;;;3.03;2.40;;;;;;;5.84;100.00;99061.53;4987354;28;20050;-96
2022/11/22 01:01:12;;;;;;;2.42;2.22;;;;;;;5.79;100.00;99055.66;4982692;28;20034;-96
2022/11/22 01:03:55;;;;;;;2.58;2.10;;;;;;;5.79;100.00;99057.38;4981847;28;20026;-96
2022/11/22 01:06:21;;;;;;;3.22;2.20;;;;;;;5.73;100.00;99050.66;4983796;28;20034;-96
2022/11/22 01:08:47;;;;;;;3.35;1.92;;;;;;;5.75;100.00;99059.19;4983189;28;20039;-96
2022/11/22 01:11:30;;;;;;;2.30;1.90;;;;;;;5.69;100.00;99055.03;4982360;28;20031;-96
2022/11/22 01:13:56;;;;;;;2.10;1.70;;;;;;;5.68;100.00;99071.34;4982558;28;20030;-96
2022/11/22 01:16:39;;;;;;;5.93;2.13;;;;;;;5.60;100.00;99059.53;4980411;28;20306;-96
2022/11/22 01:19:05;;;;;;;3.78;2.00;;;;;;;5.56;100.00;99061.34;4978353;28;20546;-96
2022/11/22 01:21:47;;;;;;;3.65;2.05;;;;;;;5.52;100.00;99067.44;4990213;28;20026;-96
2022/11/22 01:24:12;;;;;;;3.47;2.10;;;;;;;5.49;100.00;99076.06;4979891;28;20141;-96
2022/11/22 01:26:38;;;;;;;3.35;2.10;;;;;;;5.46;100.00;99075.31;4984433;28;20051;-96
2022/11/22 01:29:04;;;;;;;3.85;2.08;;;;;;;5.41;100.00;99071.09;4980475;28;20034;-96
2022/11/22 01:31:54;;;;;;;2.75;1.95;;;;;;;5.41;100.00;99076.25;4983661;28;20045;-96
2022/11/22 01:34:32;;;;;;;2.60;1.80;;;;;;;5.37;100.00;99069.50;4990943;28;20050;-96
2022/11/22 01:37:03;;;;;;;2.30;1.70;;;;;;;5.34;100.00;99068.72;4989457;28;20046;-96
2022/11/22 01:39:38;;;;;;;1.77;1.67;;;;;;;5.34;100.00;99077.28;4985531;28;20050;-96
2022/11/22 01:42:12;;;;;;;3.22;1.50;;;;;;;5.30;100.00;99074.81;4981181;28;20018;-97
2022/11/22 01:44:45;;;;;;;2.85;1.70;;;;;;;5.29;100.00;99081.69;4985106;28;20046;-96
2022/11/22 01:47:24;;;;;;;3.35;1.83;;;;;;;5.25;100.00;99074.91;4968704;28;20037;-96
2022/11/22 01:52:23;;;;;;;4.88;1.90;;;;;;;5.22;100.00;99085.25;5003575;28;20050;-96
2022/11/22 01:55:06;;;;;;;3.47;1.98;;;;;;;5.19;100.00;99080.16;5004845;28;20089;-96
2022/11/22 02:00:35;;;;;;;6.10;2.25;;;;;;;5.17;100.00;99089.66;5003204;28;20049;-96
2022/11/22 02:03:06;;;;;;;6.80;2.20;;;;;;;5.13;100.00;99093.16;5005097;28;20102;-96
2022/11/22 02:05:34;;;;;;;4.30;1.90;;;;;;;5.16;100.00;99091.38;5003475;28;20180;-96
2022/11/22 02:08:40;;;;;;;3.47;1.85;;;;;;;5.16;100.00;99093.94;4998448;28;20455;-96
2022/11/22 02:11:08;;;;;;;6.40;2.13;;;;;;;5.10;100.00;99089.78;5001153;28;20113;-96
2022/11/22 02:13:50;;;;;;;3.45;1.90;;;;;;;5.12;100.00;99105.19;5000795;28;20073;-96
2022/11/22 02:19:42;;;;;;;3.63;1.77;;;;;;;5.13;100.00;99111.16;5116773;23;20061;-96
2022/11/22 02:22:16;;;;;;;3.72;1.88;;;;;;;5.10;100.00;99109.53;4981410;28;20514;-96
2022/11/22 02:24:50;;;;;;;5.80;2.08;;;;;;;5.10;100.00;99110.34;4981061;28;20031;-96
2022/11/22 02:27:16;;;;;;;3.35;1.70;;;;;;;5.08;100.00;99100.97;4978200;28;20356;-96
2022/11/22 02:29:42;;;;;;;7.95;2.40;;;;;;;5.06;100.00;99105.31;4981350;28;20022;-96
2022/11/22 02:32:07;;;;;;;4.60;1.80;;;;;;;5.04;100.00;99105.34;4976443;28;20070;-96
2022/11/22 02:34:41;;;;;;;3.83;1.70;;;;;;;5.02;100.00;99112.25;4976774;28;20018;-96
2022/11/22 02:37:06;;;;;;;8.30;2.42;;;;;;;5.02;100.00;99119.09;4977143;28;20039;-96
2022/11/22 02:39:32;;;;;;;4.50;1.90;;;;;;;4.98;100.00;99114.91;4978876;28;20049;-96
2022/11/22 02:41:58;;;;;;;3.70;1.83;;;;;;;4.96;100.00;99109.78;4978650;28;20062;-96
2022/11/22 02:44:23;;;;;;;7.15;2.08;;;;;;;4.94;100.00;99107.25;4977563;28;20157;-96
2022/11/22 02:47:09;;;;;;;4.32;1.67;;;;;;;4.93;100.00;99110.69;4977001;28;20034;-96
2022/11/22 02:49:34;;;;;;;4.40;2.10;;;;;;;4.95;100.00;99120.97;4982841;28;20034;-96
2022/11/22 02:52:00;;;;;;;5.53;2.00;;;;;;;4.92;100.00;99118.44;4985825;28;20027;-96
2022/11/22 02:54:25;;;;;;;4.60;1.80;;;;;;;4.93;100.00;99122.72;4978975;28;20035;-96
2022/11/22 02:57:06;;;;;;;6.28;1.80;;;;;;;4.89;100.00;99124.50;4977082;28;20166;-96
2022/11/22 02:59:31;;;;;;;4.55;1.95;;;;;;;4.91;100.00;99124.47;4979386;28;20014;-96
2022/11/22 03:01:56;;;;;;;10.63;2.50;;;;;;;4.85;100.00;99127.13;4979339;28;20027;-96
2022/11/22 03:07:06;;;;;;;5.25;1.77;;;;;;;4.80;100.00;99122.09;4980727;28;20050;-96
2022/11/22 03:09:31;;;;;;;4.03;1.60;;;;;;;4.77;100.00;99125.56;4984155;28;20023;-96
2022/11/22 03:12:06;;;;;;;6.60;2.25;;;;;;;4.79;100.00;99131.53;4984712;28;20166;-96
2022/11/22 03:14:31;;;;;;;5.40;2.17;;;;;;;4.76;100.00;99128.19;4981222;28;20031;-96
2022/11/22 03:16:56;;;;;;;4.72;1.98;;;;;;;4.72;100.00;99137.69;4982674;28;20042;-96
2022/11/22 03:19:37;;;;;;;7.20;1.77;;;;;;;4.68;100.00;99138.59;4980258;28;20057;-96
2022/11/22 03:22:02;;;;;;;5.53;2.28;;;;;;;4.68;100.00;99140.31;4980495;28;20169;-96
2022/11/22 03:24:28;;;;;;;6.85;2.00;;;;;;;4.62;100.00;99138.69;4981735;28;20042;-96
2022/11/22 03:26:53;;;;;;;11.18;2.17;;;;;;;4.58;100.00;99140.47;4979239;28;20472;-96
2022/11/22 03:29:33;;;;;;;6.95;2.10;;;;;;;4.60;100.00;99148.19;4979551;28;20043;-96
2022/11/22 03:31:59;;;;;;;5.38;1.90;;;;;;;4.59;100.00;99152.47;4979723;28;20038;-96
2022/11/22 03:34:26;;;;;;;6.20;1.75;;;;;;;4.57;100.00;99154.19;4980403;28;20031;-96
2022/11/22 03:37:08;;;;;;;4.75;1.73;;;;;;;4.56;100.00;99151.66;4979621;28;20361;-96
2022/11/22 03:39:33;;;;;;;3.65;1.60;;;;;;;4.50;100.00;99146.66;4982008;28;20106;-96
2022/11/22 03:41:59;;;;;;;5.18;1.90;;;;;;;4.67;100.00;99149.75;4989443;28;20145;-96
2022/11/22 03:44:40;;;;;;;10.90;2.33;;;;;;;4.52;100.00;99150.03;4992998;28;20014;-96
2022/11/22 03:47:06;;;;;;;6.07;1.95;;;;;;;4.45;100.00;99149.28;4983554;28;20031;-96
2022/11/22 03:49:31;;;;;;;8.13;2.13;;;;;;;4.45;100.00;99155.28;4984176;28;20042;-96
2022/11/22 03:51:56;;;;;;;4.90;1.83;;;;;;;4.41;100.00;99163.06;4980222;28;20035;-96
2022/11/22 03:54:38;;;;;;;5.55;1.80;;;;;;;4.36;100.00;99154.56;4982847;28;20033;-96
2022/11/22 03:57:05;;;;;;;5.07;1.65;;;;;;;4.29;100.00;99152.13;4984220;28;20042;-96
2022/11/22 03:59:30;;;;;;;8.60;1.90;;;;;;;4.27;100.00;99160.75;4984207;28;20023;-96
2022/11/22 04:02:16;;;;;;;4.47;1.83;;;;;;;4.24;100.00;99165.91;4983007;28;20023;-96
2022/11/22 04:04:42;;;;;;;5.47;1.83;;;;;;;4.19;100.00;99163.44;4983851;28;20027;-96
2022/11/22 04:07:07;;;;;;;9.35;2.15;;;;;;;4.16;100.00;99166.91;4983947;28;20254;-96
2022/11/22 04:09:52;;;;;;;7.13;2.42;;;;;;;4.12;100.00;99157.53;4986967;28;20022;-96
2022/11/22 04:12:19;;;;;;;4.50;1.80;;;;;;;4.09;100.00;99157.56;4984860;28;20019;-96
2022/11/22 04:15:07;;;;;;;6.05;1.92;;;;;;;4.09;100.00;99161.88;4984241;28;20038;-96
2022/11/22 04:17:52;;;;;;;4.57;1.88;;;;;;;4.06;100.00;99172.19;4984131;28;20081;-96
2022/11/22 04:23:10;;;;;;;5.70;1.67;;;;;;;4.00;100.00;99184.22;4985100;28;19982;-96
2022/11/22 04:25:39;;;;;;;4.35;1.73;;;;;;;4.00;100.00;99186.81;4984844;28;20022;-96
2022/11/22 04:28:22;;;;;;;5.10;2.00;;;;;;;4.04;100.00;99186.75;4986602;28;20478;-96
2022/11/22 04:33:36;;;;;;;5.28;1.88;;;;;;;3.96;100.00;99182.59;4983570;28;20089;-96
2022/11/22 04:36:03;;;;;;;5.70;1.83;;;;;;;3.91;100.00;99175.84;4981309;28;20026;-96
2022/11/22 04:38:28;;;;;;;4.97;1.80;;;;;;;3.90;100.00;99177.53;4997451;28;20153;-96
2022/11/22 04:41:11;;;;;;;4.55;2.00;;;;;;;3.84;100.00;99172.50;4999662;28;20034;-96
2022/11/22 04:46:20;;;;;;;4.70;1.60;;;;;;;3.82;100.00;99181.94;4999985;28;20061;-96
2022/11/22 04:48:48;;;;;;;3.35;1.85;;;;;;;3.80;100.00;99186.25;4999840;28;20038;-96
2022/11/22 04:53:58;;;;;;;5.28;1.90;;;;;;;3.76;100.00;99188.03;4988677;28;20046;-96
2022/11/22 04:56:23;;;;;;;3.53;1.83;;;;;;;3.73;100.00;99197.47;4985362;28;20022;-96
2022/11/22 04:58:50;;;;;;;2.78;1.60;;;;;;;3.71;100.00;99195.78;4985920;28;20444;-96
2022/11/22 05:01:15;;;;;;;4.22;1.60;;;;;;;3.70;100.00;99190.69;4988221;28;20022;-96
2022/11/22 05:03:53;;;;;;;5.80;1.90;;;;;;;3.68;100.00;99197.53;4985062;28;20030;-96
2022/11/22 05:06:18;;;;;;;6.93;1.90;;;;;;;3.62;100.00;99198.47;4987893;28;20089;-96
2022/11/22 05:08:44;;;;;;;6.45;2.00;;;;;;;3.64;100.00;99208.72;4987631;28;20090;-96
2022/11/22 05:11:09;;;;;;;3.15;1.60;;;;;;;3.58;100.00;99198.53;4986201;28;20046;-96
2022/11/22 05:13:45;;;;;;;3.95;1.73;;;;;;;3.57;100.00;99204.53;4986311;28;20483;-96
2022/11/22 05:16:12;;;;;;;4.03;1.83;;;;;;;3.51;100.00;99197.78;4983220;28;20029;-96
2022/11/22 05:18:38;;;;;;;4.00;1.60;;;;;;;3.51;100.00;99203.72;4979612;28;20038;-96
2022/11/22 05:21:26;;;;;;;4.53;1.50;;;;;;;3.52;100.00;99200.31;4982838;28;20038;-96
2022/11/22 05:23:54;;;;;;;4.90;1.83;;;;;;;3.48;100.00;99201.22;4986013;28;20114;-96
2022/11/22 05:26:38;;;;;;;2.67;1.27;;;;;;;3.50;100.00;99203.75;4982530;28;20452;-96
2022/11/22 05:29:08;;;;;;;2.85;1.33;;;;;;;3.47;100.00;99196.97;4995370;28;20037;-96
2022/11/22 05:31:46;;;;;;;6.57;1.65;;;;;;;3.42;100.00;99193.59;4999818;28;20026;-97
2022/11/22 05:34:11;;;;;;;3.50;1.52;;;;;;;3.43;100.00;99202.16;4988859;28;20098;-96
2022/11/22 05:36:48;;;;;;;4.97;1.50;;;;;;;3.39;100.00;99194.50;4989812;28;20118;-96
2022/11/22 05:39:14;;;;;;;3.38;1.77;;;;;;;3.40;100.00;99200.47;4987168;28;20030;-96
2022/11/22 05:45:03;;;;;;;4.07;1.60;;;;;;;3.32;100.00;99194.56;4962183;28;20511;-96
2022/11/22 05:47:35;;;;;;;5.50;1.70;;;;;;;3.29;100.00;99189.47;4987353;28;20030;-96
2022/11/22 05:50:01;;;;;;;4.63;1.55;;;;;;;3.30;100.00;99199.75;4996312;28;20098;-96
2022/11/22 05:52:26;;;;;;;2.80;1.15;;;;;;;3.30;100.00;99193.75;4986587;28;20010;-96
2022/11/22 05:55:21;;;;;;;2.67;1.35;;;;;;;3.29;100.00;99192.03;4988059;28;20460;-96
2022/11/22 05:58:04;;;;;;;4.70;1.58;;;;;;;3.27;100.00;99201.47;4988549;28;20039;-96
2022/11/22 06:00:30;;;;;;;4.03;2.28;;;;;;;3.26;100.00;99195.50;4982846;28;20050;-96
2022/11/22 06:03:00;;;;;;;2.75;1.40;;;;;;;3.24;100.00;99187.84;4987704;28;20042;-96
2022/11/22 06:05:26;;;;;;;3.42;1.50;;;;;;;3.26;100.00;99189.53;5276331;23;20069;-93
2022/11/22 06:08:45;;;;;;;2.70;1.50;;;;;;;3.24;100.00;99198.09;5017471;28;20034;-96
2022/11/22 06:11:17;;;;;;;2.33;1.50;;;;;;;3.18;100.00;99195.59;4996164;28;20076;-96
2022/11/22 06:14:02;;;;;;;2.30;1.35;;;;;;;3.18;100.00;99193.03;4997077;28;20115;-96
2022/11/22 06:16:27;;;;;;;3.42;1.83;;;;;;;3.17;100.00;99199.00;4995830;28;20026;-96
2022/11/22 06:19:18;;;;;;;2.80;1.70;;;;;;;3.18;100.00;99205.84;4995318;28;20542;-96
2022/11/22 06:21:43;;;;;;;5.15;1.83;;;;;;;3.18;100.00;99199.88;4996791;28;20015;-96
2022/11/22 06:24:09;;;;;;;3.53;1.80;;;;;;;3.18;100.00;99193.03;5002688;28;20110;-96
2022/11/22 06:26:49;;;;;;;4.53;1.77;;;;;;;3.21;100.00;99208.38;5006252;28;20033;-96
2022/11/22 06:29:14;;;;;;;4.13;1.80;;;;;;;3.17;100.00;99211.84;5003061;28;20060;-96
2022/11/22 06:31:40;;;;;;;5.55;1.90;;;;;;;3.19;100.00;99212.66;4999389;28;20022;-96
2022/11/22 06:34:05;;;;;;;7.50;2.20;;;;;;;3.18;100.00;99208.41;5002195;28;20030;-96
2022/11/22 06:36:48;;;;;;;6.03;2.30;;;;;;;3.18;100.00;99205.00;5001837;28;20030;-96
2022/11/22 06:39:14;;;;;;;4.35;2.00;;;;;;;3.16;100.00;99199.03;5001742;28;20059;-96
2022/11/22 06:41:39;;;;;;;4.28;2.05;;;;;;;3.17;100.00;99200.75;5007542;28;20049;-96
2022/11/22 06:44:21;;;;;;;4.50;2.00;;;;;;;3.13;100.00;99210.19;5003800;28;20364;-96
2022/11/22 06:46:46;;;;;;;5.82;1.60;;;;;;;3.11;100.00;99211.03;5006470;28;20026;-96
2022/11/22 06:49:11;;;;;;;4.47;1.80;;;;;;;3.09;100.00;99213.63;4997712;28;20089;-94
2022/11/22 06:51:37;;;;;;;3.22;1.65;;;;;;;3.09;100.00;99218.75;5003790;28;20122;-94
2022/11/22 06:54:32;;;;;;;2.20;1.40;;;;;;;3.11;100.00;99223.88;4996986;28;20030;-93
2022/11/22 06:56:57;;;;;;;3.00;1.30;;;;;;;3.12;100.00;99226.44;4997763;28;20034;-88
2022/11/22 06:59:46;;;;;;;1.75;1.20;;;;;;;3.15;100.00;99228.09;4997300;28;20438;-89
2022/11/22 07:02:20;;;;;;;1.63;1.20;;;;;;;3.15;100.00;99222.97;4997118;28;20501;-93
2022/11/22 07:04:46;;;;;;;1.88;1.52;;;;;;;3.17;100.00;99236.63;4993247;28;20503;-93
2022/11/22 07:07:11;;;;;;;2.25;1.38;;;;;;;3.22;100.00;99245.97;4997345;28;20030;-92
2022/11/22 07:09:37;;;;;;;2.67;1.48;;;;;;;3.27;100.00;99245.06;4997350;28;20026;-94
2022/11/22 07:12:22;;;;;;;4.35;1.60;;;;;;;3.30;100.00;99245.91;4997454;28;20029;-94
2022/11/22 07:14:48;;;;;;;3.83;1.70;;;;;;;3.32;100.00;99245.88;4997208;28;20026;-93
2022/11/22 07:17:13;;;;;;;3.60;1.33;;;;;;;3.36;100.00;99247.53;5001117;28;20513;-93
2022/11/22 07:19:50;;;;;;;4.97;1.80;;;;;;;3.38;100.00;99245.78;4998307;28;20073;-91
2022/11/22 07:22:15;;;;;;;7.55;1.92;;;;;;;3.39;100.00;99248.34;4997125;28;20034;-92
2022/11/22 07:24:43;;;;;;;6.18;2.30;;;;;;;3.44;100.00;99250.00;4997245;28;20022;-93
2022/11/22 07:27:08;;;;;;;5.43;2.05;;;;;;;3.50;100.00;99252.50;4996335;28;20054;-92
2022/11/22 07:29:37;;;;;;;3.83;1.88;;;;;;;3.49;100.00;99253.38;4997526;28;20096;-93
2022/11/22 07:32:04;;;;;;;6.45;2.05;;;;;;;3.51;100.00;99257.59;4996852;28;20124;-93
2022/11/22 07:34:30;;;;;;;3.35;1.88;;;;;;;3.53;100.00;99255.88;4997217;28;20023;-93
2022/11/22 07:36:55;;;;;;;3.15;1.42;;;;;;;3.54;100.00;99252.44;4997238;28;20038;-93
2022/11/22 07:39:20;;;;;;;2.13;1.50;;;;;;;3.55;100.00;99259.28;4996851;28;20062;-93
2022/11/22 07:41:46;;;;;;;5.10;2.00;;;;;;;3.60;100.00;99258.38;4996522;28;20031;-92
2022/11/22 07:44:11;;;;;;;7.57;2.40;;;;;;;3.61;100.00;99247.22;4996767;28;20026;-94
2022/11/22 07:46:36;;;;;;;5.05;1.95;;;;;;;3.63;100.00;99251.50;4996845;28;20464;-94
2022/11/22 07:49:02;;;;;;;7.85;2.17;;;;;;;3.65;100.00;99257.44;4996793;28;20526;-89
2022/11/22 07:51:27;;;;;;;5.55;2.10;;;;;;;3.68;100.00;99254.81;4996759;28;20033;-92
2022/11/22 07:53:54;;;;;;;5.60;1.92;;;;;;;3.73;100.00;99259.91;4986349;23;20054;-91
2022/11/22 07:56:19;;;;;;;5.45;1.92;;;;;;;3.83;100.00;99250.38;4976989;28;20027;-93
2022/11/22 07:58:45;;;;;;;3.58;1.88;;;;;;;3.78;100.00;99254.69;4976509;23;20055;-92
2022/11/22 08:01:24;;;;;;;4.63;1.95;;;;;;;3.80;100.00;99255.53;4956936;29;20029;-91
2022/11/22 08:03:50;;;;;;;5.75;2.00;;;;;;;3.81;100.00;99252.97;4957400;29;20031;-91
2022/11/22 08:06:15;;;;;;;4.05;1.80;;;;;;;3.84;100.00;99255.47;4957407;29;20035;-92
2022/11/22 08:08:59;;;;;;;4.07;1.90;;;;;;;3.89;100.00;99263.09;4957416;29;20365;-91
2022/11/22 08:11:24;;;;;;;4.63;1.90;;;;;;;3.93;100.00;99251.09;4957131;29;20039;-85
2022/11/22 08:13:50;;;;;;;4.93;2.10;;;;;;;3.97;100.00;99256.19;4956461;29;20019;-88
2022/11/22 08:16:16;;;;;;;7.57;2.25;;;;;;;4.01;100.00;99262.13;4956202;29;20024;-85
2022/11/22 08:18:57;;;;;;;4.85;1.88;;;;;;;4.02;100.00;99261.25;4956832;29;20023;-86
2022/11/22 08:21:22;;;;;;;4.30;1.70;;;;;;;4.07;100.00;99256.88;4956745;29;20031;-89
2022/11/22 08:23:48;;;;;;;3.47;1.90;;;;;;;4.09;100.00;99272.28;4957227;29;20057;-88
2022/11/22 08:26:38;;;;;;;2.80;1.80;;;;;;;4.17;100.00;99260.19;4956384;29;20031;-90
2022/11/22 08:29:05;;;;;;;7.18;2.08;;;;;;;4.13;100.00;99261.06;4957021;29;20053;-89
2022/11/22 08:31:30;;;;;;;3.58;1.90;;;;;;;4.17;100.00;99262.75;4956987;29;20110;-84
2022/11/22 08:33:55;;;;;;;4.00;1.80;;;;;;;4.17;100.00;99268.72;4951536;29;20126;-83
2022/11/22 08:36:21;;;;;;;6.07;2.00;;;;;;;4.18;100.00;99270.41;4955223;29;20035;-85
2022/11/22 08:38:46;;;;;;;6.40;1.90;;;;;;;4.22;100.00;99271.25;4954920;29;20031;-90
2022/11/22 08:41:25;;;;;;;6.35;2.20;;;;;;;4.26;100.00;99267.75;4956366;29;20546;-90
2022/11/22 08:43:51;;;;;;;6.45;2.03;;;;;;;4.28;100.00;99268.56;4956638;29;20555;-91
2022/11/22 08:46:17;;;;;;;4.13;1.57;;;;;;;4.35;100.00;99268.47;4960228;29;20028;-90
2022/11/22 08:48:43;;;;;;;2.67;1.83;;;;;;;4.35;100.00;99276.16;4955533;29;20279;-90
2022/11/22 08:51:21;;;;;;;5.25;1.98;;;;;;;4.37;100.00;99270.16;4949295;29;20275;-91
2022/11/22 08:53:46;;;;;;;4.80;1.90;;;;;;;4.39;100.00;99272.69;4956417;29;20480;-90
2022/11/22 08:56:27;;;;;;;5.03;2.00;;;;;;;4.44;100.00;99274.31;4956056;29;20098;-90
2022/11/22 08:58:53;;;;;;;3.17;1.83;;;;;;;4.50;100.00;99265.66;4955827;29;20130;-90
2022/11/22 09:01:20;;;;;;;6.07;2.10;;;;;;;4.54;100.00;99275.03;4955556;29;20486;-91
2022/11/22 09:03:45;;;;;;;;;;;;;;;4.59;100.00;99269.81;4956345;28;20027;-91
2022/11/22 09:06:13;;;;;;;4.70;1.80;;;;;;;4.65;100.00;99279.97;4956221;29;19918;-90
2022/11/22 09:08:39;;;;;;;4.68;1.90;;;;;;;4.64;100.00;99284.28;4956939;29;20027;-93
2022/11/22 09:11:19;;;;;;;3.05;1.90;;;;;;;4.70;100.00;99270.50;4957228;29;20494;-92
2022/11/22 09:13:45;;;;;;;7.30;2.25;;;;;;;4.74;100.00;99277.25;4962283;29;20023;-90
2022/11/22 09:16:16;;;;;;;5.45;2.30;;;;;;;4.74;100.00;99281.56;4959858;29;20476;-89
2022/11/22 09:18:42;;;;;;;3.47;2.15;;;;;;;4.78;100.00;99288.38;4956131;29;20027;-90
2022/11/22 09:21:25;;;;;;;3.63;1.80;;;;;;;4.79;100.00;99284.91;4956342;29;20056;-90
2022/11/22 09:23:52;;;;;;;4.15;1.70;;;;;;;4.80;100.00;99276.31;4956429;29;20038;-90
2022/11/22 09:26:20;;;;;;;3.20;1.75;;;;;;;4.86;100.00;99288.22;4956370;29;20056;-90
2022/11/22 09:29:09;;;;;;;4.80;2.05;;;;;;;4.94;100.00;99287.22;4955865;29;20023;-90
2022/11/22 09:31:34;;;;;;;5.93;2.60;;;;;;;4.94;100.00;99286.38;4956462;29;20019;-89
2022/11/22 09:34:15;;;;;;;5.45;1.92;;;;;;;4.98;100.00;99280.28;4956147;29;20019;-89
2022/11/22 09:36:40;;;;;;;5.43;2.17;;;;;;;5.05;100.00;99287.03;4955747;29;20480;-91
2022/11/22 09:39:24;;;;;;;5.78;1.90;;;;;;;5.10;100.00;99290.38;4955802;29;20070;-91
2022/11/22 09:42:24;;;;;;;4.40;1.90;;;;;;;5.10;99.82;99287.78;4956064;29;20473;-92
2022/11/22 09:45:08;;;;;;;9.13;2.30;;;;;;;5.19;99.79;99289.34;4948511;29;20051;-91
2022/11/22 09:47:54;;;;;;;6.80;2.50;;;;;;;5.26;99.39;99284.94;4956220;29;20066;-91
2022/11/22 09:50:33;;;;;;;3.67;2.37;;;;;;;5.28;99.46;99287.47;4955934;29;20050;-90
2022/11/22 09:53:10;;;;;;;4.70;2.10;;;;;;;5.38;98.91;99287.31;4955850;29;20299;-91
2022/11/22 09:55:38;;;;;;;;;;;;;;;5.38;99.31;99286.44;4956455;29;20020;-91
2022/11/22 09:58:25;;;;;;;4.03;2.13;;;;;;;5.41;98.91;99283.81;4955532;28;19915;-92
2022/11/22 10:00:55;;;;;;;3.63;2.00;;;;;;;5.43;99.07;99289.78;4956125;29;20116;-91
2022/11/22 10:03:36;;;;;;;5.80;1.88;;;;;;;5.50;99.34;99295.66;4955577;29;20031;-89
2022/11/22 10:06:08;;;;;;;5.13;2.20;;;;;;;5.52;97.52;99292.16;4955316;29;20066;-90
2022/11/22 10:08:56;;;;;;;6.45;2.10;;;;;;;5.49;97.73;99293.97;4955983;29;20031;-90
2022/11/22 10:11:38;;;;;;;5.75;2.00;;;;;;;5.49;98.38;99292.22;4956088;29;20110;-89
2022/11/22 10:14:30;;;;;;;3.35;1.95;;;;;;;5.50;98.20;99300.81;5048887;23;20071;-91
2022/11/22 10:17:27;;;;;;;5.40;2.08;;;;;;;5.49;97.57;99293.97;5019344;28;20045;-90
2022/11/22 10:20:02;;;;;;;7.22;2.35;;;;;;;5.51;97.67;99298.19;5017840;28;20018;-91
2022/11/22 10:22:29;;;;;;;3.90;1.80;;;;;;;5.52;98.53;99289.59;5018416;28;20045;-91
2022/11/22 10:24:57;;;;;;;2.45;1.70;;;;;;;5.51;98.75;99292.22;5018016;28;20034;-90
2022/11/22 10:27:37;;;;;;;4.68;1.75;;;;;;;5.48;97.83;99275.09;5017512;28;20067;-92
2022/11/22 10:30:13;;;;;;;2.95;1.85;;;;;;;5.53;98.68;99283.56;5017893;28;20044;-91
2022/11/22 10:33:12;;;;;;;5.20;2.13;;;;;;;5.57;98.21;99279.22;5017238;28;20026;-91
2022/11/22 10:35:57;;;;;;;4.57;1.92;;;;;;;5.58;98.39;99283.47;5017661;28;20038;-91
2022/11/22 10:38:39;;;;;;;2.53;1.50;;;;;;;5.59;98.56;99284.31;5017577;28;20034;-90
2022/11/22 10:41:25;;;;;;;2.63;1.80;;;;;;;5.61;98.50;99275.72;5017730;28;20052;-90
2022/11/22 10:44:03;;;;;;;3.63;1.67;;;;;;;5.64;98.92;99273.03;5017975;28;20344;-91
2022/11/22 10:47:02;;;;;;;4.35;2.00;;;;;;;5.64;98.99;99269.63;5016735;28;20025;-87
2022/11/22 10:49:44;;;;;;;4.63;2.25;;;;;;;5.70;98.49;99275.50;4966997;28;20100;-90
2022/11/22 10:52:34;;;;;;;4.63;1.90;;;;;;;5.76;98.19;99276.25;5017312;28;20084;-91
2022/11/22 10:55:20;;;;;;;4.07;1.90;;;;;;;5.79;98.26;99268.47;5017535;28;20022;-91
2022/11/22 10:58:00;;;;;;;3.80;1.90;;;;;;;5.80;97.92;99273.56;5017194;28;20034;-91
2022/11/22 11:00:28;;;;;;;3.08;1.80;;;;;;;5.83;98.39;99265.81;5017119;28;20068;-91
2022/11/22 11:03:23;;;;;;;2.50;1.73;;;;;;;5.87;98.28;99271.72;5017338;28;20436;-90
2022/11/22 11:06:06;;;;;;;4.07;2.03;;;;;;;5.94;97.11;99263.00;5017369;28;20104;-90
2022/11/22 11:08:37;;;;;;;2.67;1.88;;;;;;;5.96;97.78;99258.69;5016830;28;20026;-90
2022/11/22 11:11:24;;;;;;;2.47;1.70;;;;;;;5.97;97.66;99257.78;5017250;28;20037;-91
2022/11/22 11:13:53;;;;;;;2.20;1.60;;;;;;;6.00;96.87;99254.34;5016896;28;20042;-90
2022/11/22 11:16:48;;;;;;;2.65;1.70;;;;;;;5.99;96.90;99243.16;5016759;28;20022;-91
2022/11/22 11:19:35;;;;;;;2.67;1.70;;;;;;;6.02;96.91;99237.97;4995902;28;20042;-91
2022/11/22 11:22:31;;;;;;;2.38;1.70;;;;;;;6.01;97.04;99236.25;5016774;28;20482;-91
2022/11/22 11:25:31;;;;;;;1.90;1.50;;;;;;;6.06;97.25;99238.72;5016764;28;20026;-91
2022/11/22 11:28:18;;;;;;;3.35;1.70;;;;;;;6.11;96.74;99236.03;5016381;28;20393;-93
2022/11/22 11:30:46;;;;;;;2.72;1.70;;;;;;;6.11;95.61;99239.50;5010453;28;20479;-92
2022/11/22 11:33:37;;;;;;;3.03;1.60;;;;;;;6.13;95.90;99229.13;4997163;28;20018;-91
2022/11/22 11:36:31;;;;;;;2.17;1.70;;;;;;;6.14;94.69;99220.53;4996872;28;20077;-91
2022/11/22 11:38:57;;;;;;;3.80;1.60;;;;;;;6.16;95.31;99226.50;5003226;23;20038;-92
2022/11/22 11:44:35;;;;;;;3.22;1.55;;;;;;;6.18;95.14;99228.16;4978254;28;20041;-91
2022/11/22 11:49:52;;;;;;;1.63;1.52;;;;;;;6.25;94.54;99218.56;4976887;28;20050;-91
2022/11/22 11:52:22;;;;;;;3.30;1.80;;;;;;;6.25;94.67;99222.88;4977397;28;20034;-91
2022/11/22 11:55:11;;;;;;;1.60;1.40;;;;;;;6.24;94.78;99219.44;4977399;28;20120;-91
2022/11/22 11:57:36;;;;;;;3.13;1.20;;;;;;;6.23;94.49;99219.47;4977346;28;20048;-88
2022/11/22 12:00:25;;;;;;;2.20;1.38;;;;;;;6.25;93.74;99225.44;4980323;28;20026;-91
2022/11/22 12:03:12;;;;;;;1.55;1.13;;;;;;;6.25;94.78;99220.28;4982077;28;20061;-92
2022/11/22 12:05:38;;;;;;;1.10;1.00;;;;;;;6.26;94.95;99220.25;4976477;28;20042;-91
2022/11/22 12:08:30;;;;;;;1.00;1.00;;;;;;;6.33;94.65;99219.22;4976991;28;20057;-91
2022/11/22 12:11:15;;;;;;;1.95;1.00;;;;;;;6.34;93.35;99226.06;4977222;28;20034;-92
2022/11/22 12:13:50;;;;;;;1.30;1.20;;;;;;;6.37;92.91;99225.13;4977186;28;20094;-91
2022/11/22 12:16:33;;;;;;;1.40;1.20;;;;;;;6.44;94.06;99220.66;4977155;28;20027;-93
2022/11/22 12:19:26;;;;;;;1.50;1.20;;;;;;;6.50;94.00;99217.97;4977150;28;20086;-93
2022/11/22 12:22:35;;;;;;;1.80;1.40;;;;;;;6.51;93.87;99223.94;4977473;28;20031;-94
2022/11/22 12:25:38;;;;;;;1.80;0.98;;;;;;;6.55;93.28;99221.25;4976418;28;20030;-93
2022/11/22 12:28:25;;;;;;;0.80;0.80;;;;;;;6.53;93.32;99222.19;4957781;29;20515;-90
2022/11/22 12:31:15;;;;;;;1.20;1.10;;;;;;;6.60;92.45;99223.72;4979023;28;20034;-93
2022/11/22 12:33:49;;;;;;;2.45;1.20;;;;;;;6.59;92.34;99227.19;4979358;28;20027;-92
2022/11/22 12:36:37;;;;;;;0.90;0.70;;;;;;;6.62;92.52;99227.97;4976592;28;20114;-90
2022/11/22 12:39:04;;;;;;;0.90;0.90;;;;;;;6.65;93.33;99221.88;4975597;28;20115;-88